createdAt,value
2019-04-25T00:05:06.142Z,12.84
2019-04-25T00:10:11.735Z,12.70
2019-04-25T00:15:18.165Z,12.63
2019-04-25T00:20:24.510Z,12.62
2019-04-25T00:25:31.403Z,12.49
2019-04-25T00:30:36.235Z,12.34
2019-04-25T00:35:42.530Z,12.32
2019-04-25T00:40:48.081Z,12.17
2019-04-25T00:45:52.830Z,12.10
2019-04-25T00:50:58.437Z,12.11
2019-04-25T00:56:03.024Z,11.99
2019-04-25T01:01:12.167Z,11.99
2019-04-25T01:06:16.885Z,11.79
2019-04-25T01:11:21.593Z,11.69
2019-04-25T01:16:27.392Z,11.62
2019-04-25T01:21:31.942Z,11.47
2019-04-25T01:26:36.529Z,11.50
2019-04-25T01:31:41.611Z,11.43
2019-04-25T01:36:50.824Z,11.20
2019-04-25T01:42:06.284Z,11.17
2019-04-25T01:47:14.105Z,11.19
2019-04-25T01:52:19.975Z,11.19
2019-04-25T01:57:24.608Z,11.11
2019-04-25T02:02:30.590Z,11.03
2019-04-25T02:07:35.243Z,11.18
2019-04-25T02:12:43.567Z,11.14
2019-04-25T02:17:48.415Z,11.08
2019-04-25T02:22:55.242Z,11.01
2019-04-25T02:28:01.506Z,11.07
2019-04-25T02:33:08.888Z,11.00
2019-04-25T02:38:14.715Z,10.96
2019-04-25T02:43:18.429Z,10.97
2019-04-25T02:48:41.047Z,10.96
2019-04-25T02:53:47.288Z,10.95
2019-04-25T02:58:54.149Z,10.90
2019-04-25T03:03:59.408Z,10.80
2019-04-25T03:09:09.812Z,10.76
2019-04-25T03:14:14.817Z,10.74
2019-04-25T03:19:24.373Z,10.68
2019-04-25T03:24:31.620Z,10.69
2019-04-25T03:29:38.886Z,10.66
2019-04-25T03:34:43.801Z,10.56
2019-04-25T03:39:48.288Z,10.39
2019-04-25T03:44:53.829Z,10.24
2019-04-25T03:49:58.476Z,10.42
2019-04-25T03:55:05.175Z,10.53
2019-04-25T04:00:10.783Z,10.69
2019-04-25T04:05:15.504Z,10.85
2019-04-25T04:10:21.266Z,11.08
2019-04-25T04:15:25.965Z,11.21
2019-04-25T04:20:38.165Z,11.44
2019-04-25T04:25:43.354Z,11.72
2019-04-25T04:30:47.976Z,11.95
2019-04-25T04:35:54.317Z,12.42
2019-04-25T04:40:58.918Z,13.05
2019-04-25T04:46:04.014Z,13.82
2019-04-25T04:51:13.045Z,14.44
2019-04-25T04:56:17.926Z,15.39
2019-04-25T05:01:24.798Z,16.08
2019-04-25T05:06:33.797Z,16.91
2019-04-25T05:11:38.690Z,17.30
2019-04-25T05:16:43.318Z,18.39
2019-04-25T05:21:47.886Z,18.39
2019-04-25T05:26:53.966Z,18.88
2019-04-25T05:31:58.619Z,18.90
2019-04-25T05:37:03.806Z,19.91
2019-04-25T05:42:10.659Z,20.49
2019-04-25T05:47:16.283Z,21.02
2019-04-25T05:52:21.975Z,21.75
2019-04-25T05:57:26.767Z,21.02
2019-04-25T06:02:31.414Z,21.88
2019-04-25T06:07:36.910Z,21.34
2019-04-25T06:12:46.253Z,20.33
2019-04-25T06:17:53.417Z,21.45
2019-04-25T06:23:06.716Z,22.13
2019-04-25T06:28:20.285Z,22.57
2019-04-25T06:33:25.933Z,20.76
2019-04-25T06:38:32.027Z,20.33
2019-04-25T06:43:39.959Z,23.11
2019-04-25T06:48:49.487Z,22.94
2019-04-25T06:53:54.642Z,24.35
2019-04-25T06:58:59.261Z,23.70
2019-04-25T07:04:04.419Z,23.71
2019-04-25T07:09:10.898Z,23.28
2019-04-25T07:14:15.583Z,25.33
2019-04-25T07:19:20.187Z,24.62
2019-04-25T07:24:25.841Z,24.24
2019-04-25T07:29:43.333Z,25.63
2019-04-25T07:34:48.456Z,25.81
2019-04-25T07:39:54.186Z,23.37
2019-04-25T07:44:59.838Z,21.71
2019-04-25T07:50:06.545Z,24.45
2019-04-25T07:55:11.483Z,26.19
2019-04-25T08:00:17.841Z,25.44
2019-04-25T08:05:24.073Z,22.85
2019-04-25T08:10:58.487Z,25.09
2019-04-25T08:16:04.793Z,25.59
2019-04-25T08:21:09.471Z,26.87
2019-04-25T08:26:14.270Z,26.10
2019-04-25T08:31:19.028Z,26.05
2019-04-25T08:36:23.686Z,27.88
2019-04-25T08:41:28.369Z,28.65
2019-04-25T08:46:35.799Z,27.50
2019-04-25T08:51:41.003Z,28.41
2019-04-25T08:56:45.631Z,27.62
2019-04-25T09:01:53.486Z,24.36
2019-04-25T09:06:58.208Z,27.13
2019-04-25T09:12:04.198Z,24.44
2019-04-25T09:17:11.567Z,27.84
2019-04-25T09:22:18.749Z,28.61
2019-04-25T09:27:23.588Z,29.35
2019-04-25T09:32:28.323Z,29.08
2019-04-25T09:37:33.570Z,29.54
2019-04-25T09:42:39.992Z,30.26
2019-04-25T09:47:46.201Z,28.02
2019-04-25T09:52:50.938Z,28.03
2019-04-25T09:57:57.122Z,28.08
2019-04-25T10:03:02.232Z,30.22
2019-04-25T10:08:06.921Z,30.38
2019-04-25T10:13:11.550Z,30.30
2019-04-25T10:18:16.352Z,28.02
2019-04-25T10:23:21.008Z,27.83
2019-04-25T10:28:27.364Z,29.87
2019-04-25T10:33:33.465Z,29.85
2019-04-25T10:38:40.125Z,29.84
2019-04-25T10:43:45.987Z,29.50
2019-04-25T10:48:50.695Z,29.15
2019-04-25T10:53:55.971Z,30.08
2019-04-25T10:59:01.123Z,29.60
2019-04-25T11:04:08.179Z,30.40
2019-04-25T11:09:17.372Z,29.84
2019-04-25T11:14:23.928Z,29.28
2019-04-25T11:19:28.708Z,28.16
2019-04-25T11:24:34.259Z,26.72
2019-04-25T11:29:38.977Z,26.83
2019-04-25T11:34:46.096Z,26.52
2019-04-25T11:40:00.935Z,26.14
2019-04-25T11:45:07.655Z,25.88
2019-04-25T11:50:14.029Z,25.50
2019-04-25T11:55:19.229Z,25.60
2019-04-25T12:00:28.445Z,25.07
2019-04-25T12:05:34.579Z,25.52
2019-04-25T12:10:40.271Z,25.92
2019-04-25T12:15:46.074Z,25.28
2019-04-25T12:20:51.506Z,25.53
2019-04-25T12:25:56.436Z,25.31
2019-04-25T12:31:01.438Z,25.14
2019-04-25T12:36:06.090Z,25.25
2019-04-25T12:41:12.892Z,25.29
2019-04-25T12:46:21.907Z,25.25
2019-04-25T12:51:27.237Z,25.62
2019-04-25T12:56:31.930Z,25.63
2019-04-25T13:01:36.575Z,25.90
2019-04-25T13:06:41.234Z,26.21
2019-04-25T13:11:45.998Z,26.05
2019-04-25T13:16:51.398Z,25.27
2019-04-25T13:21:56.084Z,25.38
2019-04-25T13:27:09.181Z,24.67
2019-04-25T13:32:18.469Z,24.93
2019-04-25T13:37:24.189Z,25.05
2019-04-25T13:42:28.968Z,25.62
2019-04-25T13:47:34.176Z,25.58
2019-04-25T13:52:38.745Z,25.53
2019-04-25T13:57:43.361Z,26.05
2019-04-25T14:02:48.217Z,26.74
2019-04-25T14:07:52.933Z,26.58
2019-04-25T14:12:57.764Z,26.70
2019-04-25T14:18:18.844Z,26.36
2019-04-25T14:23:25.715Z,26.00
2019-04-25T14:28:31.802Z,25.61
2019-04-25T14:33:36.677Z,25.41
2019-04-25T14:38:41.519Z,25.31
2019-04-25T14:43:46.490Z,24.98
2019-04-25T14:48:51.112Z,24.97
2019-04-25T14:53:57.218Z,24.77
2019-04-25T14:59:02.649Z,24.35
2019-04-25T15:04:07.730Z,24.03
2019-04-25T15:09:12.735Z,23.79
2019-04-25T15:14:18.903Z,23.54
2019-04-25T15:19:25.418Z,23.36
2019-04-25T15:24:30.423Z,22.94
2019-04-25T15:29:38.303Z,22.28
2019-04-25T15:34:44.940Z,22.08
2019-04-25T15:40:06.531Z,22.14
2019-04-25T15:45:22.138Z,22.23
2019-04-25T15:50:27.755Z,22.31
2019-04-25T15:55:32.766Z,22.13
2019-04-25T16:00:39.074Z,21.82
2019-04-25T16:05:47.374Z,21.97
2019-04-25T16:10:51.968Z,21.97
2019-04-25T16:15:57.544Z,21.93
2019-04-25T16:21:02.129Z,21.76
2019-04-25T16:26:07.215Z,21.74
2019-04-25T16:31:13.444Z,21.57
2019-04-25T16:36:18.159Z,21.09
2019-04-25T16:41:23.028Z,20.76
2019-04-25T16:46:30.418Z,20.57
2019-04-25T16:51:35.831Z,20.28
2019-04-25T16:56:40.448Z,20.15
2019-04-25T17:01:45.150Z,19.96
2019-04-25T17:06:49.872Z,19.80
2019-04-25T17:11:56.838Z,19.61
2019-04-25T17:17:02.905Z,19.46
2019-04-25T17:22:07.763Z,19.18
2019-04-25T17:27:12.706Z,19.07
2019-04-25T17:32:49.490Z,18.96
2019-04-25T17:37:50.943Z,18.63
2019-04-25T17:42:55.800Z,18.32
2019-04-25T17:48:00.486Z,18.12
2019-04-25T17:53:05.349Z,18.12
2019-04-25T17:58:10.073Z,17.89
2019-04-25T18:03:15.022Z,17.89
2019-04-25T18:08:19.666Z,17.73
2019-04-25T18:13:24.467Z,17.77
2019-04-25T18:18:30.735Z,17.73
2019-04-25T18:23:52.899Z,17.63
2019-04-25T18:29:02.432Z,17.68
2019-04-25T18:34:09.595Z,17.51
2019-04-25T18:39:21.849Z,17.51
2019-04-25T18:44:26.678Z,17.44
2019-04-25T18:49:31.562Z,17.28
2019-04-25T18:54:41.145Z,17.21
2019-04-25T18:59:52.954Z,17.22
2019-04-25T19:05:15.421Z,17.16
2019-04-25T19:10:20.250Z,17.02
2019-04-25T19:15:28.839Z,16.97
2019-04-25T19:20:33.533Z,16.96
2019-04-25T19:25:38.277Z,16.85
2019-04-25T19:30:45.110Z,16.71
2019-04-25T19:35:49.938Z,16.63
2019-04-25T19:41:04.946Z,16.57
2019-04-25T19:46:09.662Z,16.52
2019-04-25T19:51:14.416Z,16.47
2019-04-25T19:56:19.111Z,16.36
2019-04-25T20:01:24.005Z,16.02
2019-04-25T20:06:47.492Z,16.00
2019-04-25T20:11:54.024Z,15.86
2019-04-25T20:16:58.504Z,15.79
2019-04-25T20:22:03.213Z,15.66
2019-04-25T20:27:07.871Z,15.60
2019-04-25T20:32:12.516Z,15.45
2019-04-25T20:37:17.198Z,15.34
2019-04-25T20:42:21.853Z,15.14
2019-04-25T20:47:26.358Z,15.12
2019-04-25T20:52:31.033Z,15.06
2019-04-25T20:57:35.550Z,14.99
2019-04-25T21:02:40.465Z,14.92
2019-04-25T21:07:45.116Z,14.85
2019-04-25T21:12:50.299Z,14.80
2019-04-25T21:18:05.360Z,14.76
2019-04-25T21:23:09.865Z,14.66
2019-04-25T21:28:14.514Z,14.55
2019-04-25T21:33:19.145Z,14.49
2019-04-25T21:38:24.135Z,14.37
2019-04-25T21:43:30.440Z,14.37
2019-04-25T21:48:35.368Z,14.31
2019-04-25T21:53:40.280Z,14.28
2019-04-25T21:58:45.008Z,14.15
2019-04-25T22:03:49.776Z,14.11
2019-04-25T22:08:56.658Z,14.06
2019-04-25T22:14:03.296Z,14.00
2019-04-25T22:19:08.795Z,13.95
2019-04-25T22:24:15.994Z,13.89
2019-04-25T22:29:20.139Z,13.64
2019-04-25T22:34:35.603Z,13.54
2019-04-25T22:39:40.109Z,13.51
2019-04-25T22:44:44.581Z,13.44
2019-04-25T22:49:49.149Z,13.39
2019-04-25T22:54:53.948Z,13.35
2019-04-25T22:59:58.791Z,13.32
2019-04-25T23:05:15.758Z,13.33
2019-04-25T23:10:17.367Z,13.23
2019-04-25T23:15:21.951Z,13.21
2019-04-25T23:20:26.719Z,13.17
2019-04-25T23:25:32.957Z,13.13
2019-04-25T23:30:55.131Z,13.08
2019-04-25T23:35:59.848Z,13.04
2019-04-25T23:41:05.795Z,13.06
2019-04-25T23:46:10.508Z,13.05
2019-04-25T23:51:15.466Z,13.13
2019-04-25T23:56:21.287Z,13.09
